Time;durP1;ratioP1;P1;durP2;ratioP2;P2;SDS_P1;SDS_P2;PMS_P1;PMS_P2;Temp;Humidity;BMP_temperature;BMP_pressure;BME280_temperature;BME280_humidity;BME280_pressure;Samples;Min_cycle;Max_cycle;Signal;HPM_P1;HPM_P2
2022/07/22 00:01:40;;;;;;;8.63;7.73;;;;;;;18.23;79.94;99012.25;4929856;29;20242;-52
2022/07/22 00:04:07;;;;;;;10.07;8.30;;;;;;;18.24;80.53;99013.06;4929652;29;20259;-51
2022/07/22 00:06:34;;;;;;;9.57;8.17;;;;;;;18.15;80.44;99015.84;4929652;29;20232;-55
2022/07/22 00:09:00;;;;;;;9.20;7.90;;;;;;;18.10;80.39;99014.78;4931742;29;20265;-51
2022/07/22 00:11:27;;;;;;;10.57;8.27;;;;;;;18.06;81.48;99014.34;4929849;29;20235;-51
2022/07/22 00:13:56;;;;;;;10.20;7.67;;;;;;;18.07;82.45;99015.97;4931701;29;20233;-54
2022/07/22 00:16:23;;;;;;;9.33;7.90;;;;;;;18.09;83.17;99015.81;4932191;28;20238;-55
2022/07/22 00:18:50;;;;;;;9.77;7.83;;;;;;;17.99;82.92;99013.47;4931385;29;20224;-55
2022/07/22 00:21:17;;;;;;;10.40;7.70;;;;;;;17.93;81.96;99008.94;4931614;29;20715;-55
2022/07/22 00:23:44;;;;;;;8.80;7.73;;;;;;;17.87;82.25;99013.13;4931315;29;20220;-55
2022/07/22 00:26:12;;;;;;;11.90;8.03;;;;;;;17.86;82.29;99003.56;4931193;28;20294;-51
2022/07/22 00:28:38;;;;;;;10.17;8.43;;;;;;;17.88;83.19;98995.47;4931459;29;20234;-51
2022/07/22 00:31:07;;;;;;;9.83;7.93;;;;;;;17.89;83.00;98997.91;4931298;29;20236;-52
2022/07/22 00:33:34;;;;;;;10.40;8.37;;;;;;;17.87;82.47;98993.84;4929532;29;20235;-51
2022/07/22 00:36:01;;;;;;;11.70;8.33;;;;;;;17.89;82.63;98997.13;4931113;28;20263;-57
2022/07/22 00:38:28;;;;;;;10.73;8.10;;;;;;;17.85;82.24;98994.03;4929729;29;20504;-52
2022/07/22 00:40:55;;;;;;;9.70;7.83;;;;;;;17.87;81.61;98985.94;4928410;29;20230;-51
2022/07/22 00:43:22;;;;;;;8.83;7.90;;;;;;;17.87;81.56;98983.28;4929080;29;20313;-55
2022/07/22 00:45:49;;;;;;;11.13;8.80;;;;;;;17.86;81.95;98985.09;4930662;29;20231;-54
2022/07/22 00:48:18;;;;;;;9.13;8.13;;;;;;;17.81;82.57;98975.13;4930606;29;21810;-51
2022/07/22 00:50:45;;;;;;;9.97;8.60;;;;;;;17.82;82.30;98978.56;4931221;29;20231;-62
2022/07/22 00:53:13;;;;;;;13.80;8.00;;;;;;;17.91;81.63;98973.97;4930612;29;20231;-52
2022/07/22 00:55:40;;;;;;;9.50;7.90;;;;;;;17.91;82.86;98974.78;4929477;29;20203;-51
2022/07/22 00:58:07;;;;;;;10.73;8.43;;;;;;;17.90;81.54;98972.34;4929255;29;20214;-54
2022/07/22 01:00:53;;;;;;;8.83;7.73;;;;;;;17.88;82.49;98972.53;4930991;29;20217;-53
2022/07/22 01:03:22;;;;;;;13.23;8.67;;;;;;;17.91;82.70;98971.34;4925922;29;20231;-51
2022/07/22 01:05:48;;;;;;;10.13;8.83;;;;;;;17.80;82.67;98964.72;4929231;29;20254;-51
2022/07/22 01:08:16;;;;;;;14.47;8.00;;;;;;;17.83;82.57;98962.53;4929472;29;20302;-52
2022/07/22 01:10:43;;;;;;;11.83;8.60;;;;;;;17.84;82.12;98964.16;4930669;29;20204;-51
2022/07/22 01:13:10;;;;;;;9.17;7.67;;;;;;;17.89;81.26;98962.78;4929977;29;20278;-53
2022/07/22 01:15:37;;;;;;;8.50;7.63;;;;;;;18.00;80.58;98963.09;4929339;29;20206;-51
2022/07/22 01:18:05;;;;;;;12.60;8.13;;;;;;;18.03;80.13;98961.91;4930486;29;20207;-50
2022/07/22 01:20:35;;;;;;;9.40;7.77;;;;;;;18.07;80.11;98960.50;4929149;29;20209;-52
2022/07/22 01:23:02;;;;;;;11.80;7.87;;;;;;;18.02;79.88;98959.47;4929920;29;20227;-52
2022/07/22 01:25:30;;;;;;;8.77;7.87;;;;;;;18.04;81.05;98968.81;4928497;29;20750;-51
2022/07/22 01:27:57;;;;;;;12.27;7.93;;;;;;;17.97;80.90;98960.81;4930069;29;20310;-51
2022/07/22 01:30:25;;;;;;;11.40;8.00;;;;;;;17.98;81.27;98965.09;4929037;29;20310;-52
2022/07/22 01:32:52;;;;;;;9.57;7.67;;;;;;;17.93;81.92;98956.13;4928282;29;20215;-52
2022/07/22 01:35:19;;;;;;;10.10;8.53;;;;;;;17.88;82.50;98963.78;4930006;29;20292;-52
2022/07/22 01:37:47;;;;;;;10.73;7.63;;;;;;;17.90;82.03;98961.78;4930114;29;20222;-52
2022/07/22 01:40:15;;;;;;;11.73;8.37;;;;;;;17.82;81.81;98958.25;4928579;29;20775;-51
2022/07/22 01:42:42;;;;;;;10.97;8.37;;;;;;;17.74;82.85;98953.13;4928629;29;20294;-50
2022/07/22 01:45:11;;;;;;;9.43;8.40;;;;;;;17.67;83.49;98957.50;4927978;29;20226;-49
2022/07/22 01:47:38;;;;;;;11.40;8.33;;;;;;;17.69;83.26;98955.50;4928034;29;20218;-54
2022/07/22 01:50:08;;;;;;;9.13;8.23;;;;;;;17.62;84.04;98955.41;4928618;29;20220;-51
2022/07/22 01:52:35;;;;;;;9.73;8.60;;;;;;;17.59;84.27;98947.88;4928649;29;20212;-54
2022/07/22 01:55:06;;;;;;;12.63;9.13;;;;;;;17.61;84.59;98952.97;4927323;29;20328;-52
2022/07/22 01:57:33;;;;;;;10.23;8.33;;;;;;;17.53;85.55;98953.91;4928069;29;20589;-54
2022/07/22 02:00:01;;;;;;;9.57;8.53;;;;;;;17.46;84.97;98953.84;4927685;29;20217;-51
2022/07/22 02:02:31;;;;;;;9.33;8.43;;;;;;;17.45;84.31;98952.22;4928455;29;20289;-52
2022/07/22 02:04:59;;;;;;;9.87;8.10;;;;;;;17.56;85.28;98950.91;4926110;29;20292;-51
2022/07/22 02:07:27;;;;;;;9.87;7.93;;;;;;;17.47;85.85;98955.50;4928557;29;20203;-53
2022/07/22 02:09:54;;;;;;;10.90;8.13;;;;;;;17.41;86.02;98956.25;4927915;29;20740;-51
2022/07/22 02:12:22;;;;;;;11.90;9.07;;;;;;;17.41;85.37;98956.25;4928058;29;20290;-53
2022/07/22 02:15:09;;;;;;;10.77;8.73;;;;;;;17.31;85.22;98951.28;4929362;29;20236;-50
2022/07/22 02:17:36;;;;;;;9.97;8.73;;;;;;;17.32;85.25;98946.81;4926197;29;20202;-51
2022/07/22 02:20:05;;;;;;;9.57;8.50;;;;;;;17.31;85.29;98946.00;4926815;29;20206;-50
2022/07/22 02:22:32;;;;;;;10.47;8.33;;;;;;;17.23;85.91;98952.19;4927514;29;20198;-50
2022/07/22 02:24:59;;;;;;;11.10;9.17;;;;;;;17.20;86.18;98946.47;4941152;29;20584;-50
2022/07/22 02:27:27;;;;;;;10.23;9.10;;;;;;;17.16;86.74;98945.22;4927700;29;20221;-50
2022/07/22 02:29:54;;;;;;;10.37;8.87;;;;;;;17.12;87.04;98955.31;4927682;29;20208;-50
2022/07/22 02:32:23;;;;;;;11.67;8.60;;;;;;;17.11;86.47;98943.94;4927390;29;20286;-50
2022/07/22 02:34:50;;;;;;;10.00;8.50;;;;;;;17.08;86.63;98943.50;4925746;29;20218;-51
2022/07/22 02:37:18;;;;;;;12.00;8.63;;;;;;;17.15;86.28;98947.03;4926234;29;20230;-50
2022/07/22 02:40:04;;;;;;;10.60;9.10;;;;;;;17.10;87.05;98938.84;4928153;29;20218;-51
2022/07/22 02:42:33;;;;;;;9.67;8.63;;;;;;;17.07;86.01;98941.84;4925109;29;20198;-52
2022/07/22 02:45:00;;;;;;;8.70;7.80;;;;;;;17.04;86.57;98943.06;4927279;29;20312;-54
2022/07/22 02:47:27;;;;;;;11.10;8.53;;;;;;;17.00;85.98;98941.78;4926993;29;20218;-50
2022/07/22 02:49:55;;;;;;;13.33;8.57;;;;;;;17.03;86.30;98944.06;4926851;29;20300;-53
2022/07/22 02:52:23;;;;;;;10.83;8.63;;;;;;;17.00;85.60;98939.16;4927705;29;20195;-53
2022/07/22 02:54:50;;;;;;;11.90;8.20;;;;;;;16.95;86.64;98936.22;4925409;29;20222;-55
2022/07/22 02:57:17;;;;;;;9.67;8.17;;;;;;;16.99;86.29;98940.16;4926022;29;20599;-51
2022/07/22 02:59:45;;;;;;;12.10;8.60;;;;;;;16.95;86.69;98939.69;4927532;29;20200;-51
2022/07/22 03:02:13;;;;;;;13.03;8.60;;;;;;;16.96;86.74;98945.78;4926993;29;20195;-51
2022/07/22 03:04:40;;;;;;;11.40;9.37;;;;;;;16.96;87.57;98941.31;4924765;29;20233;-51
2022/07/22 03:07:07;;;;;;;9.73;8.57;;;;;;;16.99;87.56;98941.97;4925538;29;20694;-50
2022/07/22 03:09:35;;;;;;;9.97;8.53;;;;;;;16.89;87.78;98947.50;4927130;29;20197;-50
2022/07/22 03:12:02;;;;;;;9.90;8.57;;;;;;;16.81;88.18;98943.97;4928676;29;20250;-50
2022/07/22 03:14:29;;;;;;;10.17;9.17;;;;;;;16.86;87.54;98945.22;4926564;29;20230;-53
2022/07/22 03:16:58;;;;;;;14.07;9.07;;;;;;;16.78;88.34;98949.59;4926824;29;20665;-49
2022/07/22 03:19:25;;;;;;;10.70;8.97;;;;;;;16.82;87.76;98948.25;4926983;29;20285;-51
2022/07/22 03:21:55;;;;;;;12.20;8.90;;;;;;;16.75;88.74;98949.16;4927223;29;20234;-52
2022/07/22 03:24:22;;;;;;;12.27;9.40;;;;;;;16.70;88.81;98943.63;4926941;29;20305;-52
2022/07/22 03:26:51;;;;;;;9.83;8.40;;;;;;;16.73;89.07;98940.63;4926605;29;20285;-52
2022/07/22 03:29:19;;;;;;;12.60;9.50;;;;;;;16.67;89.10;98943.00;4930089;29;20213;-50
2022/07/22 03:31:46;;;;;;;10.37;8.57;;;;;;;16.68;89.02;98946.44;4931469;29;20198;-52
2022/07/22 03:34:15;;;;;;;12.50;9.17;;;;;;;16.59;90.02;98944.88;4930577;29;20224;-50
2022/07/22 03:36:51;;;;;;;11.40;8.83;;;;;;;16.59;90.00;98934.34;4930875;29;20200;-51
2022/07/22 03:39:18;;;;;;;10.87;9.63;;;;;;;16.52;90.86;98935.06;4930072;29;20216;-52
2022/07/22 03:41:45;;;;;;;12.13;8.73;;;;;;;16.45;90.88;98946.53;4930248;29;20291;-50
2022/07/22 03:44:13;;;;;;;11.80;9.10;;;;;;;16.43;91.10;98940.63;4929866;29;20224;-50
2022/07/22 03:46:40;;;;;;;12.50;8.77;;;;;;;16.38;91.79;98930.63;4930511;29;20225;-53
2022/07/22 03:49:07;;;;;;;11.73;8.53;;;;;;;16.40;91.53;98935.72;4930187;29;20711;-50
2022/07/22 03:51:36;;;;;;;10.30;9.20;;;;;;;16.46;90.81;98935.78;4936850;29;20200;-52
2022/07/22 03:54:03;;;;;;;10.20;8.87;;;;;;;16.43;91.35;98933.53;4929219;29;20237;-50
2022/07/22 03:56:31;;;;;;;10.90;8.73;;;;;;;16.43;91.47;98930.88;4929158;29;20719;-50
2022/07/22 03:59:00;;;;;;;10.27;8.57;;;;;;;16.39;90.87;98927.00;4930136;29;20251;-50
2022/07/22 04:01:28;;;;;;;9.83;8.50;;;;;;;16.43;91.11;98927.44;4930261;29;20298;-50
2022/07/22 04:03:56;;;;;;;12.40;9.33;;;;;;;16.44;91.09;98918.53;4929172;29;20257;-50
2022/07/22 04:06:33;;;;;;;10.50;8.63;;;;;;;16.44;90.90;98915.91;4927593;29;20199;-49
2022/07/22 04:09:09;;;;;;;11.50;8.80;;;;;;;16.46;91.05;98908.63;4930115;29;20688;-51
2022/07/22 04:11:36;;;;;;;11.20;8.63;;;;;;;16.47;90.66;98911.09;4929198;29;20299;-50
2022/07/22 04:14:04;;;;;;;11.27;8.43;;;;;;;16.52;90.82;98918.44;4929324;29;20317;-49
2022/07/22 04:16:32;;;;;;;12.63;8.70;;;;;;;16.56;90.33;98914.44;4928739;29;20201;-50
2022/07/22 04:19:05;;;;;;;9.83;8.80;;;;;;;16.55;90.76;98919.91;4930037;29;20308;-50
2022/07/22 04:21:53;;;;;;;12.63;8.50;;;;;;;16.57;90.76;98921.34;4929686;29;20675;-50
2022/07/22 04:24:24;;;;;;;11.97;9.10;;;;;;;16.64;90.97;98931.97;4929339;29;20569;-51
2022/07/22 04:26:54;;;;;;;10.13;8.53;;;;;;;16.73;90.77;98922.97;4930821;29;20197;-51
2022/07/22 04:29:25;;;;;;;12.23;9.20;;;;;;;16.71;90.19;98916.25;4929691;29;20228;-52
2022/07/22 04:31:53;;;;;;;11.57;8.77;;;;;;;16.76;90.33;98922.59;4929418;29;20209;-50
2022/07/22 04:34:20;;;;;;;14.00;9.60;;;;;;;16.79;89.92;98919.59;4929697;29;20588;-52
2022/07/22 04:36:49;;;;;;;12.73;9.33;;;;;;;16.88;89.80;98922.13;4928949;29;20197;-51
2022/07/22 04:42:03;;;;;;;10.27;9.17;;;;;;;16.95;89.98;98921.22;4929938;29;20206;-52
2022/07/22 04:44:31;;;;;;;11.97;9.17;;;;;;;16.99;89.44;98928.78;4928497;29;20221;-50
2022/07/22 04:47:01;;;;;;;12.63;9.53;;;;;;;16.96;88.90;98920.22;4929682;29;20204;-53
2022/07/22 04:49:30;;;;;;;11.93;9.20;;;;;;;16.98;89.23;98922.69;4929709;29;20221;-53
2022/07/22 04:51:59;;;;;;;10.43;9.30;;;;;;;17.00;89.46;98919.88;4929231;29;20313;-50
2022/07/22 04:54:36;;;;;;;12.00;9.77;;;;;;;17.01;90.52;98914.41;4929435;29;20277;-52
2022/07/22 04:57:05;;;;;;;11.67;8.93;;;;;;;17.05;89.34;98915.69;4928136;29;20209;-50
2022/07/22 04:59:32;;;;;;;10.30;8.93;;;;;;;17.06;89.56;98916.50;4929474;29;20621;-50
2022/07/22 05:01:59;;;;;;;12.27;9.47;;;;;;;17.09;89.58;98909.03;4928753;29;20605;-50
2022/07/22 05:04:26;;;;;;;11.10;8.73;;;;;;;17.11;89.83;98911.47;4928749;29;20211;-50
2022/07/22 05:06:53;;;;;;;11.93;8.73;;;;;;;17.14;90.03;98905.81;4926357;29;20218;-50
2022/07/22 05:09:22;;;;;;;10.70;8.97;;;;;;;17.15;89.19;98914.56;4928935;29;20272;-51
2022/07/22 05:11:51;;;;;;;12.00;9.20;;;;;;;17.18;89.95;98915.00;4928032;29;20246;-50
2022/07/22 05:14:22;;;;;;;9.90;8.90;;;;;;;17.18;89.76;98911.56;4928705;29;20228;-53
2022/07/22 05:16:49;;;;;;;12.87;8.97;;;;;;;17.23;89.44;98901.25;4928621;29;20281;-50
2022/07/22 05:19:16;;;;;;;9.90;8.70;;;;;;;17.31;89.40;98910.88;4928957;29;20189;-52
2022/07/22 05:21:44;;;;;;;10.33;9.10;;;;;;;17.32;89.13;98909.88;4928901;29;20202;-50
2022/07/22 05:24:11;;;;;;;10.17;9.17;;;;;;;17.34;89.02;98910.50;4928584;29;20338;-50
2022/07/22 05:26:39;;;;;;;10.23;8.50;;;;;;;17.37;88.80;98908.31;4928356;29;20192;-50
2022/07/22 05:29:06;;;;;;;14.37;9.20;;;;;;;17.41;88.83;98911.38;4928272;29;20589;-50
2022/07/22 05:31:35;;;;;;;10.40;8.60;;;;;;;17.45;89.32;98911.84;4928593;29;21099;-53
2022/07/22 05:34:04;;;;;;;12.30;8.70;;;;;;;17.51;89.18;98911.88;4928707;29;20243;-50
2022/07/22 05:36:40;;;;;;;10.23;8.47;;;;;;;17.54;88.73;98914.16;4928748;29;20202;-49
2022/07/22 05:39:08;;;;;;;10.90;8.30;;;;;;;17.62;88.35;98915.03;4929003;29;20206;-50
2022/07/22 05:41:36;;;;;;;11.83;8.90;;;;;;;17.65;87.85;98912.81;4928473;29;20274;-50
2022/07/22 05:44:05;;;;;;;10.47;8.80;;;;;;;17.69;88.00;98914.06;4927390;29;20224;-52
2022/07/22 05:46:32;;;;;;;11.33;9.63;;;;;;;17.75;87.34;98909.88;4928820;29;20198;-50
2022/07/22 05:49:02;;;;;;;9.83;8.70;;;;;;;17.80;87.03;98904.81;4928126;29;20760;-50
2022/07/22 05:51:34;;;;;;;12.17;9.30;;;;;;;17.86;87.06;98903.22;4926979;29;20203;-49
2022/07/22 05:54:02;;;;;;;9.97;8.90;;;;;;;17.94;86.94;98899.66;4926965;29;20255;-50
2022/07/22 05:56:29;;;;;;;11.87;9.23;;;;;;;17.99;86.17;98900.72;4928553;29;20225;-50
2022/07/22 05:58:57;;;;;;;9.57;8.60;;;;;;;18.09;86.18;98895.09;4928279;29;20229;-50
2022/07/22 06:01:24;;;;;;;10.20;9.20;;;;;;;18.26;85.57;98905.34;4928570;29;20199;-52
2022/07/22 06:03:53;;;;;;;10.43;7.93;;;;;;;18.46;84.72;98899.38;4927472;29;20298;-52
2022/07/22 06:06:22;;;;;;;10.63;8.90;;;;;;;18.61;83.96;98902.72;4927881;29;20198;-50
2022/07/22 06:08:49;;;;;;;11.67;9.30;;;;;;;18.77;82.94;98903.38;4925266;29;20622;-52
2022/07/22 06:11:17;;;;;;;9.97;8.10;;;;;;;18.91;81.65;98899.78;4928132;29;20632;-50
2022/07/22 06:13:44;;;;;;;11.67;8.53;;;;;;;19.06;80.68;98896.19;4927845;29;20717;-50
2022/07/22 06:16:29;;;;;;;11.27;8.60;;;;;;;19.25;80.30;98894.59;4928844;29;20206;-50
2022/07/22 06:19:15;;;;;;;11.13;8.77;;;;;;;19.42;79.31;98903.81;4928715;29;20213;-50
2022/07/22 06:21:44;;;;;;;9.63;8.73;;;;;;;19.60;78.67;98905.84;4927194;29;20875;-50
2022/07/22 06:24:14;;;;;;;11.60;9.07;;;;;;;19.76;77.68;98893.22;4927532;29;20215;-51
2022/07/22 06:26:41;;;;;;;10.63;8.30;;;;;;;19.90;76.93;98897.53;4927886;29;20283;-53
2022/07/22 06:29:08;;;;;;;12.40;8.20;;;;;;;20.05;76.12;98893.84;4927815;29;20244;-51
2022/07/22 06:31:37;;;;;;;10.10;8.30;;;;;;;20.22;74.65;98894.22;4928786;29;20979;-53
2022/07/22 06:34:05;;;;;;;11.57;8.40;;;;;;;20.41;75.53;98892.53;4927051;29;20213;-53
2022/07/22 06:36:45;;;;;;;11.83;8.63;;;;;;;20.60;74.40;98884.72;4928459;29;20259;-53
2022/07/22 06:39:12;;;;;;;9.93;8.53;;;;;;;20.73;73.84;98883.84;4927560;29;20543;-53
2022/07/22 06:42:05;;;;;;;10.37;8.73;;;;;;;20.91;73.38;98891.94;4929145;29;20210;-53
2022/07/22 06:44:51;;;;;;;9.27;8.23;;;;;;;21.04;71.85;98890.25;4927095;29;20882;-54
2022/07/22 06:47:31;;;;;;;9.10;7.90;;;;;;;21.15;70.42;98896.75;4927676;29;20625;-52
2022/07/22 06:49:59;;;;;;;11.33;7.97;;;;;;;21.22;70.81;98890.34;4926605;29;20668;-54
2022/07/22 06:52:27;;;;;;;12.37;8.93;;;;;;;21.31;70.57;98896.19;4926668;29;20197;-51
2022/07/22 06:55:13;;;;;;;9.43;8.30;;;;;;;21.44;70.94;98883.88;4929277;29;20284;-51
2022/07/22 06:57:47;;;;;;;10.37;9.27;;;;;;;21.50;69.01;98885.66;4926500;29;20211;-50
2022/07/22 07:00:17;;;;;;;13.03;9.23;;;;;;;21.66;69.68;98876.38;4927836;29;20196;-52
2022/07/22 07:03:12;;;;;;;11.57;9.53;;;;;;;21.63;68.06;98877.63;4927798;29;20313;-50
2022/07/22 07:05:40;;;;;;;11.50;9.47;;;;;;;21.75;67.68;98876.91;4927084;29;20260;-51
2022/07/22 07:08:09;;;;;;;9.60;8.60;;;;;;;21.87;67.63;98879.66;4926111;29;20204;-51
2022/07/22 07:10:38;;;;;;;12.93;9.57;;;;;;;22.03;66.94;98880.97;4926504;29;20289;-52
2022/07/22 07:13:10;;;;;;;13.13;9.33;;;;;;;21.96;67.63;98881.84;4927198;29;20582;-52
2022/07/22 07:15:41;;;;;;;10.30;9.20;;;;;;;22.07;67.73;98882.16;4926640;29;20203;-51
2022/07/22 07:18:09;;;;;;;11.67;9.47;;;;;;;22.23;67.36;98881.56;4927075;29;20213;-51
2022/07/22 07:20:37;;;;;;;11.47;9.17;;;;;;;22.27;67.05;98881.94;4926965;29;20549;-51
2022/07/22 07:23:09;;;;;;;10.80;8.83;;;;;;;22.44;67.27;98882.19;4927091;29;20209;-51
2022/07/22 07:25:41;;;;;;;11.97;8.27;;;;;;;22.56;65.98;98890.25;4927533;29;20198;-51
2022/07/22 07:28:09;;;;;;;16.00;9.40;;;;;;;22.52;65.63;98887.19;4927367;29;20215;-50
2022/07/22 07:30:58;;;;;;;11.77;9.13;;;;;;;22.63;65.58;98895.47;4927390;29;20696;-53
2022/07/22 07:33:26;;;;;;;14.10;10.07;;;;;;;22.38;65.67;98885.69;4928145;29;20265;-51
2022/07/22 07:35:56;;;;;;;10.10;8.37;;;;;;;22.54;65.60;98890.44;4927184;29;20199;-51
2022/07/22 07:38:49;;;;;;;11.93;8.80;;;;;;;22.68;66.09;98903.59;4928909;29;20244;-51
2022/07/22 07:41:17;;;;;;;11.37;8.90;;;;;;;22.81;65.13;98894.63;4943148;29;20213;-52
2022/07/22 07:43:48;;;;;;;9.30;8.27;;;;;;;22.99;64.36;98901.78;4926596;29;20760;-52
2022/07/22 07:46:15;;;;;;;12.57;9.67;;;;;;;22.96;64.14;98891.56;4928486;29;20203;-52
2022/07/22 07:48:42;;;;;;;14.03;10.07;;;;;;;23.02;64.75;98903.16;4927134;29;20258;-51
2022/07/22 07:51:09;;;;;;;13.10;9.23;;;;;;;22.90;63.17;98903.13;4927127;29;20214;-51
2022/07/22 07:53:36;;;;;;;15.90;9.70;;;;;;;22.96;64.19;98900.34;4928172;29;20207;-54
2022/07/22 07:56:05;;;;;;;13.80;9.37;;;;;;;23.05;63.78;98895.56;4927240;29;20611;-51
2022/07/22 07:58:32;;;;;;;9.73;8.63;;;;;;;23.22;63.38;98892.25;4926093;29;20210;-52
2022/07/22 08:00:59;;;;;;;11.57;9.40;;;;;;;23.13;62.45;98883.75;4927303;29;20236;-48
2022/07/22 08:03:27;;;;;;;10.37;9.20;;;;;;;23.23;62.81;98883.25;4926841;29;20569;-50
2022/07/22 08:05:54;;;;;;;10.57;8.83;;;;;;;23.34;63.44;98893.09;4926914;29;20211;-52
2022/07/22 08:08:25;;;;;;;12.10;9.53;;;;;;;23.40;62.70;98886.84;4926771;29;20205;-52
2022/07/22 08:10:55;;;;;;;10.60;9.43;;;;;;;23.39;62.84;98885.22;4924521;29;20298;-49
2022/07/22 08:13:42;;;;;;;10.30;8.47;;;;;;;23.52;62.93;98888.72;4928012;29;20293;-51
2022/07/22 08:16:22;;;;;;;13.27;9.73;;;;;;;23.48;62.13;98890.22;4931926;29;20232;-49
2022/07/22 08:18:49;;;;;;;10.47;9.33;;;;;;;23.44;61.65;98890.69;4930235;29;20210;-52
2022/07/22 08:21:16;;;;;;;11.83;9.20;;;;;;;23.53;62.51;98895.69;4930272;29;20657;-51
2022/07/22 08:23:52;;;;;;;13.00;9.10;;;;;;;23.66;62.27;98898.13;4929755;29;20222;-51
2022/07/22 08:26:20;;;;;;;10.90;9.10;;;;;;;23.86;61.27;98891.66;4930201;29;20242;-55
2022/07/22 08:28:49;;;;;;;11.73;9.80;;;;;;;23.94;60.62;98893.16;4930477;29;20212;-51
2022/07/22 08:31:15;;;;;;;10.13;9.03;;;;;;;23.73;61.25;98896.19;4930125;29;20226;-53
2022/07/22 08:33:44;;;;;;;15.80;9.77;;;;;;;23.74;60.71;98889.81;4929961;29;20234;-52
2022/07/22 08:36:11;;;;;;;10.63;9.23;;;;;;;23.83;60.56;98889.47;4929991;29;20226;-51
2022/07/22 08:38:39;;;;;;;11.47;9.30;;;;;;;23.76;61.27;98881.59;4930109;29;20272;-53
2022/07/22 08:41:06;;;;;;;14.00;9.13;;;;;;;23.82;60.62;98880.69;4930154;29;20303;-50
2022/07/22 08:43:36;;;;;;;15.03;9.73;;;;;;;23.95;60.67;98882.28;4930024;29;20574;-51
2022/07/22 08:46:06;;;;;;;12.60;10.17;;;;;;;23.87;60.46;98878.09;4929849;29;20568;-52
2022/07/22 08:48:52;;;;;;;12.83;9.37;;;;;;;23.96;60.90;98867.91;4931135;29;20209;-50
2022/07/22 08:51:38;;;;;;;11.70;9.20;;;;;;;24.07;60.90;98870.84;4930981;29;20222;-51
2022/07/22 08:54:37;;;;;;;12.20;9.83;;;;;;;24.27;59.63;98865.13;4927004;29;20220;-51
2022/07/22 08:57:05;;;;;;;10.20;9.00;;;;;;;24.25;60.24;98856.53;4929661;29;20195;-51
2022/07/22 08:59:33;;;;;;;13.53;9.50;;;;;;;24.32;59.92;98860.72;4928290;29;20318;-51
2022/07/22 09:02:08;;;;;;;13.07;9.37;;;;;;;24.42;59.14;98859.28;4928479;29;20306;-51
2022/07/22 09:04:55;;;;;;;13.13;9.30;;;;;;;24.41;59.44;98854.97;4928644;29;20662;-51
2022/07/22 09:07:27;;;;;;;12.87;10.03;;;;;;;24.52;59.20;98856.00;4928736;29;20664;-53
2022/07/22 09:09:56;;;;;;;12.97;10.03;;;;;;;24.54;59.27;98857.38;4929094;29;20225;-53
2022/07/22 09:12:54;;;;;;;12.10;9.47;;;;;;;24.53;60.11;98852.28;4928757;29;20226;-51
2022/07/22 09:15:48;;;;;;;11.47;9.57;;;;;;;24.45;59.94;98851.63;4929132;29;20254;-53
2022/07/22 09:18:47;;;;;;;11.13;9.63;;;;;;;24.69;59.17;98848.06;4924494;29;20216;-51
2022/07/22 09:21:43;;;;;;;10.93;9.73;;;;;;;24.76;59.48;98843.41;4923925;29;20583;-51
2022/07/22 09:24:30;;;;;;;11.47;10.27;;;;;;;24.84;59.04;98850.25;4920669;29;20226;-51
2022/07/22 09:27:23;;;;;;;13.17;9.37;;;;;;;24.95;58.69;98832.53;4924100;29;20231;-51
2022/07/22 09:30:14;;;;;;;10.90;9.50;;;;;;;25.10;58.39;98834.66;4916756;29;20237;-51
2022/07/22 09:32:59;;;;;;;17.40;9.93;;;;;;;25.24;57.95;98835.16;4930861;29;20245;-50
2022/07/22 09:35:43;;;;;;;11.40;8.77;;;;;;;25.34;57.28;98836.13;4924594;29;20338;-52
2022/07/22 09:38:12;;;;;;;12.17;9.43;;;;;;;25.46;56.96;98829.91;4926456;29;20288;-51
2022/07/22 09:40:40;;;;;;;12.40;9.70;;;;;;;25.59;57.69;98826.09;4926805;29;20218;-54
2022/07/22 09:43:11;;;;;;;10.43;8.90;;;;;;;25.71;56.74;98829.47;4924544;29;20256;-51
2022/07/22 09:45:48;;;;;;;13.33;9.40;;;;;;;25.76;55.83;98826.09;4932246;29;20783;-51
2022/07/22 09:48:18;;;;;;;13.27;9.70;;;;;;;25.79;54.88;98822.94;4927512;29;20251;-51
2022/07/22 09:50:58;;;;;;;11.87;9.67;;;;;;;25.78;54.92;98824.78;4927751;29;20224;-51
2022/07/22 09:53:56;;;;;;;11.13;9.30;;;;;;;25.73;55.47;98830.03;4909874;29;20930;-50
2022/07/22 09:56:29;;;;;;;15.20;9.83;;;;;;;25.73;55.30;98821.22;4927953;29;20227;-52
2022/07/22 09:58:57;;;;;;;13.83;9.80;;;;;;;25.82;54.70;98813.59;4927587;29;20216;-51
2022/07/22 10:01:30;;;;;;;13.13;9.20;;;;;;;25.97;55.72;98804.97;4926773;29;20322;-51
2022/07/22 10:03:57;;;;;;;11.60;9.50;;;;;;;26.15;53.09;98806.56;4926811;29;20605;-52
2022/07/22 10:06:26;;;;;;;10.77;9.37;;;;;;;26.05;54.38;98808.00;4927163;29;20733;-50
2022/07/22 10:08:54;;;;;;;12.17;9.70;;;;;;;26.19;53.96;98807.69;4927330;29;20236;-53
2022/07/22 10:11:21;;;;;;;12.40;8.90;;;;;;;26.15;53.60;98807.34;4926828;29;20235;-52
2022/07/22 10:13:48;;;;;;;12.30;9.27;;;;;;;26.19;53.98;98803.13;4926251;29;20224;-52
2022/07/22 10:16:16;;;;;;;10.83;9.73;;;;;;;26.14;54.13;98800.38;4926978;28;20228;-50
2022/07/22 10:18:46;;;;;;;12.33;10.83;;;;;;;26.17;54.82;98810.59;4926938;29;20221;-51
2022/07/22 10:21:34;;;;;;;10.00;9.00;;;;;;;26.22;54.95;98791.91;4928798;28;20247;-50
2022/07/22 10:24:10;;;;;;;10.67;9.67;;;;;;;26.29;53.07;98794.41;4927540;29;20228;-52
2022/07/22 10:27:01;;;;;;;11.30;9.20;;;;;;;26.40;53.97;98800.69;4926858;29;20757;-51
2022/07/22 10:29:30;;;;;;;12.97;9.40;;;;;;;26.54;53.46;98795.75;4928806;29;20279;-50
2022/07/22 10:32:27;;;;;;;9.63;8.63;;;;;;;26.78;53.52;98798.13;4928969;28;20276;-53
2022/07/22 10:35:25;;;;;;;10.63;9.40;;;;;;;26.80;52.55;98791.47;4927298;29;20584;-54
2022/07/22 10:38:06;;;;;;;9.93;8.80;;;;;;;26.82;52.64;98793.91;4925988;29;20244;-52
2022/07/22 10:40:46;;;;;;;9.87;8.93;;;;;;;27.02;51.28;98787.09;4926955;29;20216;-51
2022/07/22 10:43:15;;;;;;;10.50;8.87;;;;;;;27.09;50.23;98801.91;4928075;29;20229;-53
2022/07/22 10:45:46;;;;;;;13.00;9.43;;;;;;;27.07;50.34;98793.31;4928705;29;20208;-53
2022/07/22 10:48:15;;;;;;;11.17;8.93;;;;;;;26.96;51.02;98787.06;4926536;29;20220;-51
2022/07/22 10:50:55;;;;;;;10.33;8.83;;;;;;;27.06;51.30;98788.22;4928886;29;20241;-51
2022/07/22 10:53:25;;;;;;;9.90;8.90;;;;;;;27.26;49.95;98792.91;4928686;29;20220;-51
2022/07/22 10:56:08;;;;;;;9.67;8.77;;;;;;;27.23;50.31;98772.81;4928401;29;20205;-51
2022/07/22 10:58:46;;;;;;;9.50;8.60;;;;;;;27.46;49.98;98775.34;4928903;29;20282;-52
2022/07/22 11:01:16;;;;;;;11.93;9.17;;;;;;;27.40;49.22;98761.13;4928655;29;20202;-53
2022/07/22 11:03:44;;;;;;;11.00;8.93;;;;;;;27.40;49.15;98763.81;4927761;29;20221;-51
2022/07/22 11:06:30;;;;;;;9.77;8.23;;;;;;;27.60;49.49;98770.38;4927733;29;20247;-51
2022/07/22 11:09:01;;;;;;;11.10;9.10;;;;;;;27.79;49.61;98768.88;4927281;29;20262;-50
2022/07/22 11:11:38;;;;;;;11.37;9.10;;;;;;;27.71;48.59;98758.63;4928001;29;20221;-53
2022/07/22 11:14:17;;;;;;;12.50;8.50;;;;;;;27.79;49.48;98749.31;4927661;29;20332;-50
2022/07/22 11:16:46;;;;;;;10.57;8.30;;;;;;;27.84;48.56;98750.13;4928053;29;20258;-52
2022/07/22 11:19:13;;;;;;;9.10;8.20;;;;;;;27.99;48.79;98745.88;4928200;29;20255;-51
2022/07/22 11:21:40;;;;;;;10.93;8.63;;;;;;;28.12;48.33;98741.88;4928172;29;20687;-51
2022/07/22 11:24:09;;;;;;;10.20;8.20;;;;;;;28.31;47.40;98747.63;4927823;29;20218;-49
2022/07/22 11:26:46;;;;;;;11.23;9.27;;;;;;;28.41;46.47;98753.00;4927506;29;20258;-50
2022/07/22 11:29:34;;;;;;;11.45;8.48;;;;;;;28.21;46.94;98750.28;4927960;29;20718;-51
2022/07/22 11:32:02;;;;;;;10.67;9.07;;;;;;;28.14;46.02;98748.66;4928134;29;20195;-50
2022/07/22 11:34:30;;;;;;;11.87;8.20;;;;;;;28.25;46.55;98741.41;4927749;29;20218;-51
2022/07/22 11:36:58;;;;;;;10.63;8.55;;;;;;;28.47;46.27;98731.53;4928691;29;20290;-51
2022/07/22 11:39:27;;;;;;;9.50;8.57;;;;;;;28.37;46.93;98740.38;4928780;29;20184;-51
2022/07/22 11:42:13;;;;;;;9.20;8.27;;;;;;;28.51;46.57;98736.09;4928667;29;20268;-54
2022/07/22 11:44:40;;;;;;;10.65;8.32;;;;;;;28.51;46.25;98740.69;4926131;29;20220;-50
2022/07/22 11:47:08;;;;;;;10.73;9.00;;;;;;;28.72;45.28;98726.16;4926194;29;20370;-52
2022/07/22 11:49:37;;;;;;;12.38;8.60;;;;;;;28.53;45.94;98738.53;4927614;29;20198;-50